createdAt,value
2023-01-28T00:01:55.302Z,22.00
2023-01-28T00:03:58.763Z,24.40
2023-01-28T00:06:06.287Z,18.52
2023-01-28T00:08:10.295Z,20.45
2023-01-28T00:10:14.205Z,20.10
2023-01-28T00:12:17.630Z,20.88
2023-01-28T00:14:22.511Z,20.00
2023-01-28T00:16:27.268Z,23.48
2023-01-28T00:18:31.241Z,22.42
2023-01-28T00:20:35.338Z,20.73
2023-01-28T00:22:38.799Z,24.98
2023-01-28T00:24:43.263Z,26.98
2023-01-28T00:26:46.611Z,20.38
2023-01-28T00:28:50.051Z,21.77
2023-01-28T00:30:54.787Z,23.58
2023-01-28T00:32:58.165Z,25.48
2023-01-28T00:35:01.486Z,20.23
2023-01-28T00:37:04.800Z,25.52
2023-01-28T00:39:08.237Z,16.13
2023-01-28T00:41:13.573Z,21.63
2023-01-28T00:43:16.857Z,20.05
2023-01-28T00:45:20.371Z,18.80
2023-01-28T00:47:25.098Z,17.77
2023-01-28T00:49:28.383Z,20.23
2023-01-28T00:51:31.593Z,24.73
2023-01-28T00:53:36.377Z,19.33
2023-01-28T00:55:39.710Z,23.50
2023-01-28T00:57:43.100Z,22.35
2023-01-28T00:59:46.667Z,22.75
2023-01-28T01:01:49.965Z,23.55
2023-01-28T01:04:02.757Z,19.13
2023-01-28T01:06:07.597Z,21.85
2023-01-28T01:08:11.399Z,22.85
2023-01-28T01:10:18.284Z,19.85
2023-01-28T01:12:21.675Z,23.50
2023-01-28T01:14:25.178Z,23.98
2023-01-28T01:16:32.269Z,22.20
2023-01-28T01:18:36.446Z,19.58
2023-01-28T01:20:45.602Z,22.95
2023-01-28T01:22:49.099Z,22.60
2023-01-28T01:24:52.763Z,23.33
2023-01-28T01:26:56.307Z,23.00
2023-01-28T01:29:00.160Z,27.45
2023-01-28T01:31:05.446Z,18.95
2023-01-28T01:33:08.788Z,21.40
2023-01-28T01:35:12.880Z,20.30
2023-01-28T01:37:18.243Z,21.60
2023-01-28T01:39:21.654Z,24.27
2023-01-28T01:41:28.920Z,21.52
2023-01-28T01:43:49.639Z,22.35
2023-01-28T01:45:57.803Z,23.10
2023-01-28T01:48:04.227Z,25.20
2023-01-28T01:50:17.831Z,21.83
2023-01-28T01:52:27.907Z,18.75
2023-01-28T01:54:33.501Z,21.80
2023-01-28T01:56:40.298Z,22.33
2023-01-28T01:58:46.489Z,18.48
2023-01-28T02:00:50.179Z,20.30
2023-01-28T02:02:56.780Z,22.40
2023-01-28T02:05:00.297Z,23.73
2023-01-28T02:07:04.403Z,25.80
2023-01-28T02:09:24.707Z,19.70
2023-01-28T02:11:33.121Z,24.20
2023-01-28T02:13:40.907Z,25.95
2023-01-28T02:15:45.622Z,22.92
2023-01-28T02:17:51.145Z,23.77
2023-01-28T02:19:58.733Z,21.42
2023-01-28T02:22:19.480Z,19.38
2023-01-28T02:24:55.379Z,26.95
2023-01-28T02:27:16.022Z,21.25
2023-01-28T02:29:27.581Z,24.02
2023-01-28T02:31:35.798Z,18.77
2023-01-28T02:33:46.086Z,24.15
2023-01-28T02:35:55.114Z,29.38
2023-01-28T02:38:04.599Z,24.15
2023-01-28T02:40:12.343Z,23.60
2023-01-28T02:42:19.768Z,19.38
2023-01-28T02:44:24.597Z,26.65
2023-01-28T02:46:54.606Z,18.77
2023-01-28T02:48:58.162Z,24.83
2023-01-28T02:51:09.272Z,24.58
2023-01-28T02:53:41.401Z,19.90
2023-01-28T02:55:52.520Z,22.00
2023-01-28T02:58:04.468Z,21.08
2023-01-28T03:00:13.471Z,22.05
2023-01-28T03:02:25.102Z,17.90
2023-01-28T03:04:32.192Z,18.77
2023-01-28T03:06:39.434Z,26.08
2023-01-28T03:09:04.151Z,17.92
2023-01-28T03:11:24.656Z,24.77
2023-01-28T03:13:45.639Z,23.50
2023-01-28T03:16:08.689Z,21.70
2023-01-28T03:18:33.826Z,23.83
2023-01-28T03:20:59.794Z,25.38
2023-01-28T03:23:28.055Z,21.25
2023-01-28T03:25:49.083Z,26.42
2023-01-28T03:28:15.595Z,25.30
2023-01-28T03:30:41.658Z,25.88
2023-01-28T03:33:03.952Z,21.60
2023-01-28T03:35:29.330Z,20.48
2023-01-28T03:37:35.105Z,22.52
2023-01-28T03:39:39.393Z,23.58
2023-01-28T03:41:43.011Z,26.77
2023-01-28T03:43:46.301Z,26.90
2023-01-28T03:45:51.575Z,22.42
2023-01-28T03:47:56.655Z,18.52
2023-01-28T03:50:01.337Z,20.58
2023-01-28T03:52:05.043Z,24.58
2023-01-28T03:54:08.622Z,25.38
2023-01-28T03:56:18.626Z,27.23
2023-01-28T03:58:23.474Z,22.85
2023-01-28T04:00:26.916Z,25.42
2023-01-28T04:02:30.444Z,25.20
2023-01-28T04:04:35.440Z,23.10
2023-01-28T04:06:38.702Z,26.63
2023-01-28T04:08:49.113Z,23.38
2023-01-28T04:10:52.826Z,20.15
2023-01-28T04:12:56.935Z,23.95
2023-01-28T04:15:00.191Z,26.77
2023-01-28T04:17:04.319Z,27.10
2023-01-28T04:19:08.042Z,25.92
2023-01-28T04:21:13.565Z,24.75
2023-01-28T04:23:17.072Z,22.63
2023-01-28T04:25:20.703Z,30.30
2023-01-28T04:27:23.924Z,28.08
2023-01-28T04:29:27.308Z,26.98
2023-01-28T04:31:31.097Z,26.75
2023-01-28T04:33:34.570Z,31.02
2023-01-28T04:35:37.860Z,24.17
2023-01-28T04:37:44.417Z,23.33
2023-01-28T04:39:47.677Z,29.48
2023-01-28T04:41:51.553Z,29.92
2023-01-28T04:43:55.119Z,27.58
2023-01-28T04:45:58.592Z,29.00
2023-01-28T04:48:01.822Z,27.50
2023-01-28T04:50:05.708Z,23.20
2023-01-28T04:52:08.961Z,28.40
2023-01-28T04:54:14.045Z,24.30
2023-01-28T04:56:17.535Z,27.38
2023-01-28T04:58:22.126Z,30.45
2023-01-28T05:00:25.447Z,26.17
2023-01-28T05:02:28.638Z,28.67
2023-01-28T05:04:31.992Z,28.90
2023-01-28T05:06:35.421Z,25.48
2023-01-28T05:08:38.992Z,22.55
2023-01-28T05:10:43.613Z,25.70
2023-01-28T05:12:47.311Z,24.20
2023-01-28T05:14:50.684Z,25.35
2023-01-28T05:16:54.158Z,30.83
2023-01-28T05:18:57.506Z,29.88
2023-01-28T05:21:01.006Z,31.73
2023-01-28T05:23:06.760Z,27.10
2023-01-28T05:25:11.245Z,25.30
2023-01-28T05:27:16.008Z,27.10
2023-01-28T05:29:19.557Z,25.13
2023-01-28T05:31:23.052Z,26.77
2023-01-28T05:33:26.343Z,30.95
2023-01-28T05:35:29.527Z,26.27
2023-01-28T05:37:32.940Z,29.58
2023-01-28T05:39:36.451Z,25.30
2023-01-28T05:41:39.936Z,29.92
2023-01-28T05:43:44.850Z,29.38
2023-01-28T05:45:48.963Z,24.77
2023-01-28T05:47:52.247Z,28.70
2023-01-28T05:49:55.837Z,32.88
2023-01-28T05:51:59.400Z,29.52
2023-01-28T05:54:02.689Z,31.75
2023-01-28T05:56:06.759Z,32.30
2023-01-28T05:58:10.353Z,30.63
2023-01-28T06:00:17.326Z,26.25
2023-01-28T06:02:21.220Z,27.23
2023-01-28T06:04:24.531Z,27.42
2023-01-28T06:06:28.082Z,34.17
2023-01-28T06:08:31.361Z,30.05
2023-01-28T06:10:34.683Z,34.40
2023-01-28T06:12:37.900Z,28.10
2023-01-28T06:14:41.385Z,32.03
2023-01-28T06:16:45.994Z,27.08
2023-01-28T06:18:49.228Z,35.13
2023-01-28T06:20:52.603Z,37.28
2023-01-28T06:22:56.169Z,30.20
2023-01-28T06:24:59.466Z,36.40
2023-01-28T06:27:03.271Z,36.33
2023-01-28T06:29:06.961Z,30.10
2023-01-28T06:31:10.607Z,35.60
2023-01-28T06:33:15.383Z,30.50
2023-01-28T06:35:18.839Z,28.05
2023-01-28T06:37:22.477Z,31.25
2023-01-28T06:39:27.161Z,28.95
2023-01-28T06:41:30.477Z,32.95
2023-01-28T06:43:33.695Z,25.50
2023-01-28T06:45:37.493Z,29.77
2023-01-28T06:47:41.587Z,26.77
2023-01-28T06:49:46.479Z,39.55
2023-01-28T06:51:49.807Z,31.88
2023-01-28T06:53:53.096Z,37.35
2023-01-28T06:55:56.490Z,33.80
2023-01-28T06:58:00.187Z,26.23
2023-01-28T07:00:04.354Z,32.90
2023-01-28T07:02:07.956Z,35.88
2023-01-28T07:04:11.489Z,30.88
2023-01-28T07:06:16.314Z,29.42
2023-01-28T07:08:19.809Z,30.65
2023-01-28T07:10:23.613Z,34.78
2023-01-28T07:12:27.008Z,29.48
2023-01-28T07:14:30.257Z,23.83
2023-01-28T07:16:33.582Z,28.05
2023-01-28T07:18:37.283Z,32.72
2023-01-28T07:20:40.898Z,33.10
2023-01-28T07:22:46.475Z,35.13
2023-01-28T07:24:49.666Z,26.88
2023-01-28T07:26:52.923Z,31.00
2023-01-28T07:28:56.711Z,26.17
2023-01-28T07:31:00.050Z,26.92
2023-01-28T07:33:03.337Z,25.33
2023-01-28T07:35:07.543Z,25.77
2023-01-28T07:37:10.848Z,28.83
2023-01-28T07:39:15.500Z,33.17
2023-01-28T07:41:18.804Z,31.15
2023-01-28T07:43:23.536Z,27.00
2023-01-28T07:45:28.849Z,21.63
2023-01-28T07:47:32.157Z,21.02
2023-01-28T07:49:39.786Z,18.38
2023-01-28T07:51:43.353Z,20.88
2023-01-28T07:53:46.596Z,23.08
2023-01-28T07:55:51.262Z,20.88
2023-01-28T07:57:56.397Z,21.23
2023-01-28T07:59:59.973Z,20.15
2023-01-28T08:02:03.708Z,18.38
2023-01-28T08:04:07.313Z,19.15
2023-01-28T08:06:11.707Z,21.58
2023-01-28T08:08:17.450Z,17.85
2023-01-28T08:10:21.846Z,21.30
2023-01-28T08:12:26.529Z,20.13
2023-01-28T08:14:30.486Z,20.40
2023-01-28T08:16:33.869Z,21.00
2023-01-28T08:18:37.280Z,18.10
2023-01-28T08:20:41.489Z,20.15
2023-01-28T08:22:44.901Z,19.80
2023-01-28T08:24:48.357Z,19.33
2023-01-28T08:26:51.659Z,19.30
2023-01-28T08:28:56.982Z,19.25
2023-01-28T08:31:01.968Z,18.70
2023-01-28T08:33:06.573Z,18.75
2023-01-28T08:35:10.655Z,21.52
2023-01-28T08:37:13.988Z,19.92
2023-01-28T08:39:17.231Z,21.88
2023-01-28T08:41:20.515Z,21.48
2023-01-28T08:43:24.264Z,18.70
2023-01-28T08:45:30.366Z,18.58
2023-01-28T08:47:33.754Z,19.40
2023-01-28T08:49:37.290Z,21.20
2023-01-28T08:51:40.508Z,20.45
2023-01-28T08:53:44.664Z,18.05
2023-01-28T08:55:48.908Z,19.48
2023-01-28T08:57:52.428Z,17.55
2023-01-28T08:59:55.879Z,22.02
2023-01-28T09:02:00.748Z,20.05
2023-01-28T09:04:04.274Z,20.15
2023-01-28T09:06:08.085Z,22.05
2023-01-28T09:08:13.552Z,18.95
2023-01-28T09:10:18.151Z,18.40
2023-01-28T09:12:21.663Z,19.30
2023-01-28T09:14:25.310Z,16.60
2023-01-28T09:16:28.633Z,19.77
2023-01-28T09:18:33.539Z,16.10
2023-01-28T09:20:38.075Z,22.23
2023-01-28T09:22:41.811Z,19.95
2023-01-28T09:24:45.549Z,19.00
2023-01-28T09:26:50.638Z,16.58
2023-01-28T09:28:54.241Z,20.75
2023-01-28T09:31:03.616Z,22.92
2023-01-28T09:33:08.334Z,18.25
2023-01-28T09:35:15.251Z,21.88
2023-01-28T09:37:19.054Z,17.90
2023-01-28T09:39:22.382Z,19.90
2023-01-28T09:41:28.627Z,18.95
2023-01-28T09:43:57.283Z,18.55
2023-01-28T09:46:04.505Z,16.77
2023-01-28T09:48:14.890Z,21.38
2023-01-28T09:50:22.504Z,19.38
2023-01-28T09:52:28.164Z,18.98
2023-01-28T09:54:41.890Z,22.23
2023-01-28T09:56:48.662Z,19.05
2023-01-28T09:58:52.219Z,15.15
2023-01-28T10:01:00.657Z,21.02
2023-01-28T10:03:10.927Z,14.90
2023-01-28T10:05:26.639Z,17.40
2023-01-28T10:07:39.423Z,22.48
2023-01-28T10:09:49.784Z,19.25
2023-01-28T10:12:06.233Z,18.70
2023-01-28T10:14:14.843Z,20.45
2023-01-28T10:16:24.931Z,19.75
2023-01-28T10:18:39.798Z,15.93
2023-01-28T10:20:48.311Z,18.40
2023-01-28T10:22:55.808Z,19.20
2023-01-28T10:25:06.497Z,17.80
2023-01-28T10:27:16.885Z,19.60
2023-01-28T10:29:21.796Z,19.65
2023-01-28T10:31:34.638Z,18.80
2023-01-28T10:33:40.423Z,20.30
2023-01-28T10:35:45.470Z,17.83
2023-01-28T10:37:49.393Z,19.48
2023-01-28T10:39:54.632Z,20.60
2023-01-28T10:41:58.967Z,19.17
2023-01-28T10:44:02.599Z,18.45
2023-01-28T10:46:10.980Z,19.75
2023-01-28T10:48:20.179Z,18.05
2023-01-28T10:50:25.942Z,16.52
2023-01-28T10:52:30.912Z,17.67
2023-01-28T10:54:34.710Z,18.80
2023-01-28T10:56:39.796Z,20.05
2023-01-28T10:58:58.394Z,21.02
2023-01-28T11:01:05.708Z,18.35
2023-01-28T11:03:20.026Z,18.80
2023-01-28T11:05:26.744Z,18.92
2023-01-28T11:07:31.939Z,16.75
2023-01-28T11:09:37.600Z,22.15
2023-01-28T11:11:41.214Z,15.15
2023-01-28T11:13:53.718Z,18.40
2023-01-28T11:16:02.533Z,19.92
2023-01-28T11:18:10.653Z,15.27
2023-01-28T11:20:21.264Z,19.45
2023-01-28T11:22:34.422Z,21.30
2023-01-28T11:24:41.069Z,23.75
2023-01-28T11:26:48.264Z,19.05
2023-01-28T11:28:52.689Z,17.27
2023-01-28T11:31:00.391Z,21.13
2023-01-28T11:33:09.266Z,26.35
2023-01-28T11:35:27.961Z,18.73
2023-01-28T11:37:32.845Z,18.48
2023-01-28T11:39:36.344Z,19.65
2023-01-28T11:41:40.499Z,21.80
2023-01-28T11:43:47.220Z,20.85
2023-01-28T11:46:05.141Z,19.75
2023-01-28T11:48:20.865Z,18.67
2023-01-28T11:50:36.149Z,19.13
2023-01-28T11:53:06.052Z,19.05
2023-01-28T11:55:26.918Z,17.50
2023-01-28T11:57:37.715Z,20.65
2023-01-28T11:59:59.254Z,21.60
2023-01-28T12:02:19.543Z,19.27
2023-01-28T12:04:34.530Z,22.88
2023-01-28T12:06:58.543Z,25.08
2023-01-28T12:09:14.357Z,19.27
2023-01-28T12:11:48.322Z,23.00
2023-01-28T12:14:05.330Z,20.23
2023-01-28T12:16:22.984Z,17.90
2023-01-28T12:18:32.398Z,22.73
2023-01-28T12:20:44.111Z,21.52
2023-01-28T12:23:19.662Z,19.27
2023-01-28T12:25:40.497Z,18.92
2023-01-28T12:27:56.250Z,20.20
2023-01-28T12:30:12.029Z,21.52
2023-01-28T12:32:31.723Z,20.27
2023-01-28T12:35:08.402Z,19.13
2023-01-28T12:37:18.427Z,17.52
2023-01-28T12:39:35.302Z,18.83
2023-01-28T12:41:45.979Z,21.17
2023-01-28T12:43:58.280Z,20.67
2023-01-28T12:46:11.109Z,21.40
2023-01-28T12:48:20.556Z,19.90
2023-01-28T12:50:28.957Z,23.45
2023-01-28T12:52:36.852Z,22.58
2023-01-28T12:54:45.999Z,21.60
2023-01-28T12:56:55.165Z,24.23
2023-01-28T12:59:02.315Z,20.40
2023-01-28T13:01:11.031Z,18.13
2023-01-28T13:03:23.053Z,21.80
2023-01-28T13:05:34.646Z,19.58
2023-01-28T13:07:45.846Z,20.88
2023-01-28T13:09:54.591Z,21.73
2023-01-28T13:12:05.745Z,21.27
2023-01-28T13:14:12.745Z,26.90
2023-01-28T13:16:28.660Z,21.25
2023-01-28T13:18:46.983Z,22.40
2023-01-28T13:20:55.375Z,21.85
2023-01-28T13:23:03.380Z,20.90
2023-01-28T13:25:24.284Z,21.08
2023-01-28T13:27:30.755Z,17.85
2023-01-28T13:29:37.723Z,19.92
2023-01-28T13:31:53.094Z,21.85
2023-01-28T13:34:13.905Z,22.45
2023-01-28T13:36:27.703Z,23.17
2023-01-28T13:38:44.347Z,20.75
2023-01-28T13:40:57.221Z,18.20
2023-01-28T13:43:16.119Z,16.63
2023-01-28T13:45:31.039Z,21.17
2023-01-28T13:47:42.540Z,19.20
2023-01-28T13:49:49.181Z,18.65
2023-01-28T13:52:01.097Z,19.00
2023-01-28T13:54:08.567Z,20.45
2023-01-28T13:56:22.905Z,19.02
2023-01-28T13:59:03.367Z,20.30
2023-01-28T14:01:54.445Z,22.00
2023-01-28T14:04:42.154Z,20.15
2023-01-28T14:07:18.599Z,21.88
2023-01-28T14:09:45.575Z,16.83
2023-01-28T14:12:33.456Z,19.92
2023-01-28T14:15:07.373Z,19.95
2023-01-28T14:17:22.180Z,17.20
2023-01-28T14:19:30.739Z,19.02
2023-01-28T14:21:36.408Z,18.35
2023-01-28T14:23:45.970Z,18.00
2023-01-28T14:26:02.904Z,19.23
2023-01-28T14:28:11.948Z,17.23
2023-01-28T14:30:24.590Z,21.42
2023-01-28T14:32:31.023Z,21.45
2023-01-28T14:34:37.616Z,20.08
2023-01-28T14:36:43.182Z,19.45
2023-01-28T14:38:47.974Z,20.48
2023-01-28T14:40:54.192Z,18.17
2023-01-28T14:42:59.152Z,21.60
2023-01-28T14:45:22.096Z,18.10
2023-01-28T14:47:59.292Z,16.90
2023-01-28T14:50:27.080Z,16.50
2023-01-28T14:52:50.165Z,18.88
2023-01-28T14:55:06.303Z,18.85
2023-01-28T14:57:22.689Z,16.33
2023-01-28T14:59:31.306Z,20.70
2023-01-28T15:01:34.792Z,17.50
2023-01-28T15:03:46.801Z,18.08
2023-01-28T15:05:51.643Z,18.33
2023-01-28T15:07:55.934Z,23.35
2023-01-28T15:10:03.562Z,15.55
2023-01-28T15:12:09.479Z,22.90
2023-01-28T15:14:21.277Z,19.75
2023-01-28T15:16:29.369Z,16.77
2023-01-28T15:18:37.427Z,19.92
2023-01-28T15:20:44.899Z,17.70
2023-01-28T15:22:50.194Z,24.88
2023-01-28T15:24:54.310Z,18.20
2023-01-28T15:26:58.011Z,24.85
2023-01-28T15:29:01.830Z,18.35
2023-01-28T15:31:05.512Z,17.13
2023-01-28T15:33:15.350Z,19.17
2023-01-28T15:35:18.762Z,20.48
2023-01-28T15:37:22.878Z,17.83
2023-01-28T15:39:29.855Z,17.92
2023-01-28T15:41:37.650Z,17.50
2023-01-28T15:43:41.551Z,17.65
2023-01-28T15:45:48.101Z,22.10
2023-01-28T15:47:52.959Z,20.50
2023-01-28T15:49:58.976Z,16.63
2023-01-28T15:52:02.861Z,22.60
2023-01-28T15:54:11.139Z,18.42
2023-01-28T15:56:16.942Z,24.38
2023-01-28T15:58:27.317Z,20.75
2023-01-28T16:00:31.596Z,20.73
2023-01-28T16:02:43.324Z,20.55
2023-01-28T16:04:58.139Z,19.73
2023-01-28T16:07:06.561Z,20.48
2023-01-28T16:09:22.263Z,19.10
2023-01-28T16:11:31.430Z,23.42
2023-01-28T16:13:35.605Z,18.08
2023-01-28T16:15:39.481Z,23.50
2023-01-28T16:17:48.041Z,18.95
2023-01-28T16:19:57.272Z,20.90
2023-01-28T16:22:01.880Z,20.00
2023-01-28T16:24:07.687Z,20.45
2023-01-28T16:26:23.241Z,19.30
2023-01-28T16:28:29.303Z,21.17
2023-01-28T16:30:32.833Z,22.48
2023-01-28T16:32:39.181Z,21.45
2023-01-28T16:34:44.737Z,20.48
2023-01-28T16:36:48.119Z,18.80
2023-01-28T16:38:51.422Z,19.27
2023-01-28T16:40:54.744Z,19.63
2023-01-28T16:42:58.134Z,21.85
2023-01-28T16:45:03.435Z,20.10
2023-01-28T16:47:07.056Z,23.55
2023-01-28T16:49:10.668Z,16.02
2023-01-28T16:51:18.371Z,19.98
2023-01-28T16:53:25.644Z,21.77
2023-01-28T16:55:30.739Z,26.65
2023-01-28T16:57:37.541Z,22.80
2023-01-28T16:59:41.536Z,20.92
2023-01-28T17:01:46.753Z,24.75
2023-01-28T17:03:50.329Z,21.73
2023-01-28T17:05:55.485Z,21.10
2023-01-28T17:07:59.517Z,19.85
2023-01-28T17:10:02.878Z,21.95
2023-01-28T17:12:06.770Z,21.05
2023-01-28T17:14:10.858Z,23.23
2023-01-28T17:16:14.373Z,19.60
2023-01-28T17:18:19.131Z,29.15
2023-01-28T17:20:23.054Z,23.88
2023-01-28T17:22:26.779Z,23.42
2023-01-28T17:24:31.091Z,25.42
2023-01-28T17:26:35.533Z,30.45
2023-01-28T17:28:39.052Z,31.52
2023-01-28T17:30:43.970Z,29.25
2023-01-28T17:32:48.051Z,26.33
2023-01-28T17:34:52.766Z,28.42
2023-01-28T17:36:56.111Z,28.63
2023-01-28T17:38:59.491Z,29.92
2023-01-28T17:41:03.725Z,31.27
2023-01-28T17:43:07.632Z,32.80
2023-01-28T17:45:11.341Z,30.65
2023-01-28T17:47:14.645Z,31.05
2023-01-28T17:49:18.063Z,31.10
2023-01-28T17:51:22.856Z,31.98
2023-01-28T17:53:26.190Z,34.75
2023-01-28T17:55:29.705Z,32.20
2023-01-28T17:57:33.133Z,35.67
2023-01-28T17:59:36.485Z,30.13
2023-01-28T18:01:39.898Z,37.95
2023-01-28T18:03:43.256Z,32.67
2023-01-28T18:05:47.931Z,28.70
2023-01-28T18:07:52.612Z,34.25
2023-01-28T18:09:56.257Z,36.13
2023-01-28T18:11:59.613Z,34.67
2023-01-28T18:14:03.638Z,32.97
2023-01-28T18:16:09.756Z,34.85
2023-01-28T18:18:13.935Z,31.63
2023-01-28T18:20:18.241Z,37.83
2023-01-28T18:22:21.602Z,38.03
2023-01-28T18:24:29.214Z,34.60
2023-01-28T18:26:32.777Z,36.00
2023-01-28T18:28:36.016Z,38.30
2023-01-28T18:30:39.786Z,41.45
2023-01-28T18:32:43.366Z,41.65
2023-01-28T18:34:46.887Z,42.03
2023-01-28T18:36:50.574Z,39.45
2023-01-28T18:38:54.464Z,36.30
2023-01-28T18:40:59.190Z,37.72
2023-01-28T18:43:02.557Z,33.78
2023-01-28T18:45:06.758Z,38.13
2023-01-28T18:47:10.141Z,40.90
2023-01-28T18:49:13.604Z,42.80
2023-01-28T18:51:29.337Z,37.97
2023-01-28T18:53:33.256Z,34.70
2023-01-28T18:55:36.584Z,34.55
2023-01-28T18:57:41.610Z,41.42
2023-01-28T18:59:44.969Z,42.75
2023-01-28T19:01:48.408Z,42.75
2023-01-28T19:03:51.872Z,39.47
2023-01-28T19:05:55.202Z,44.95
2023-01-28T19:07:58.883Z,39.60
2023-01-28T19:10:02.148Z,38.70
2023-01-28T19:12:06.074Z,37.08
2023-01-28T19:14:13.334Z,38.40
2023-01-28T19:16:17.072Z,42.38
2023-01-28T19:18:20.445Z,33.88
2023-01-28T19:20:23.919Z,43.35
2023-01-28T19:22:27.206Z,44.20
2023-01-28T19:24:30.643Z,44.25
2023-01-28T19:26:34.553Z,43.63
2023-01-28T19:28:37.797Z,39.38
2023-01-28T19:30:42.683Z,46.13
2023-01-28T19:32:46.110Z,41.83
2023-01-28T19:34:49.433Z,41.67
2023-01-28T19:36:52.867Z,38.40
2023-01-28T19:38:59.308Z,41.42
2023-01-28T19:41:04.727Z,42.95
2023-01-28T19:43:08.462Z,42.97
2023-01-28T19:45:12.922Z,32.13
2023-01-28T19:47:17.661Z,35.00
2023-01-28T19:49:21.165Z,35.15
2023-01-28T19:51:25.163Z,30.90
2023-01-28T19:53:29.064Z,32.40
2023-01-28T19:55:32.479Z,38.55
2023-01-28T19:57:35.856Z,36.22
2023-01-28T19:59:39.140Z,36.72
2023-01-28T20:01:42.798Z,32.40
2023-01-28T20:03:52.740Z,36.03
2023-01-28T20:06:01.371Z,41.80
2023-01-28T20:08:05.590Z,37.25
2023-01-28T20:10:11.965Z,33.25
2023-01-28T20:12:15.466Z,37.78
2023-01-28T20:14:20.911Z,39.47
2023-01-28T20:16:25.761Z,34.95
2023-01-28T20:18:29.043Z,38.00
2023-01-28T20:20:33.687Z,35.50
2023-01-28T20:22:39.394Z,34.88
2023-01-28T20:24:42.628Z,38.95
2023-01-28T20:26:46.377Z,38.38
2023-01-28T20:28:50.083Z,35.65
2023-01-28T20:30:54.032Z,41.58
2023-01-28T20:32:57.476Z,45.95
2023-01-28T20:35:00.767Z,35.38
2023-01-28T20:37:06.727Z,34.85
2023-01-28T20:39:10.116Z,40.55
2023-01-28T20:41:15.444Z,34.95
2023-01-28T20:43:19.051Z,33.35
2023-01-28T20:45:22.823Z,34.55
2023-01-28T20:47:26.135Z,37.35
2023-01-28T20:49:29.765Z,32.65
2023-01-28T20:51:36.112Z,39.53
2023-01-28T20:53:41.358Z,33.63
2023-01-28T20:55:45.075Z,36.50
2023-01-28T20:57:48.721Z,34.13
2023-01-28T20:59:52.023Z,36.10
2023-01-28T21:01:55.411Z,37.05
2023-01-28T21:03:59.053Z,34.22
2023-01-28T21:06:02.705Z,40.58
2023-01-28T21:08:06.304Z,37.92
2023-01-28T21:10:12.545Z,35.53
2023-01-28T21:12:16.059Z,34.17
2023-01-28T21:14:19.444Z,32.22
2023-01-28T21:16:23.515Z,30.67
2023-01-28T21:18:27.772Z,35.38
2023-01-28T21:20:31.991Z,31.73
2023-01-28T21:22:35.339Z,30.25
2023-01-28T21:24:38.638Z,28.40
2023-01-28T21:26:43.348Z,29.98
2023-01-28T21:28:46.986Z,27.67
2023-01-28T21:30:50.510Z,35.80
2023-01-28T21:32:53.875Z,31.02
2023-01-28T21:34:57.261Z,39.03
2023-01-28T21:37:00.686Z,31.25
2023-01-28T21:39:05.077Z,30.13
2023-01-28T21:41:08.668Z,30.10
2023-01-28T21:43:13.509Z,32.60
2023-01-28T21:45:17.047Z,27.17
2023-01-28T21:47:20.700Z,29.80
2023-01-28T21:49:24.032Z,28.25
2023-01-28T21:51:39.767Z,31.10
2023-01-28T21:53:44.158Z,31.88
2023-01-28T21:55:49.226Z,29.88
2023-01-28T21:58:13.169Z,32.30
2023-01-28T22:00:18.360Z,30.58
2023-01-28T22:02:23.897Z,27.73
2023-01-28T22:04:28.990Z,33.15
2023-01-28T22:06:32.242Z,33.00
2023-01-28T22:08:35.663Z,30.23
2023-01-28T22:10:38.964Z,34.65
2023-01-28T22:12:42.257Z,28.48
2023-01-28T22:14:48.110Z,30.75
2023-01-28T22:16:53.259Z,31.95
2023-01-28T22:18:56.533Z,29.20
2023-01-28T22:21:00.136Z,31.10
2023-01-28T22:23:03.527Z,32.85
2023-01-28T22:25:07.220Z,31.33
2023-01-28T22:27:12.335Z,27.70
2023-01-28T22:29:16.871Z,29.13
2023-01-28T22:31:20.205Z,26.75
2023-01-28T22:33:26.353Z,37.20
2023-01-28T22:35:29.635Z,32.50
2023-01-28T22:37:33.008Z,28.55
2023-01-28T22:39:36.364Z,30.15
2023-01-28T22:41:40.335Z,29.27
2023-01-28T22:43:43.774Z,35.22
2023-01-28T22:45:47.166Z,30.23
2023-01-28T22:47:50.424Z,35.05
2023-01-28T22:49:55.408Z,29.25
2023-01-28T22:51:59.005Z,30.48
2023-01-28T22:54:02.808Z,28.85
2023-01-28T22:56:06.812Z,31.40
2023-01-28T22:58:10.105Z,27.85
2023-01-28T23:00:16.312Z,29.23
2023-01-28T23:02:20.141Z,32.80
2023-01-28T23:04:23.555Z,28.35
2023-01-28T23:06:29.078Z,34.45
2023-01-28T23:08:33.524Z,28.95
2023-01-28T23:10:36.901Z,38.30
2023-01-28T23:12:40.354Z,36.83
2023-01-28T23:15:01.292Z,37.00
2023-01-28T23:17:21.792Z,35.65
2023-01-28T23:19:42.979Z,37.25
2023-01-28T23:22:05.040Z,43.88
2023-01-28T23:24:22.217Z,36.83
2023-01-28T23:26:25.509Z,37.78
2023-01-28T23:28:29.289Z,36.58
2023-01-28T23:30:32.972Z,38.78
2023-01-28T23:32:36.419Z,37.13
2023-01-28T23:34:42.206Z,48.85
2023-01-28T23:36:45.657Z,42.85
2023-01-28T23:38:50.398Z,47.58
2023-01-28T23:40:55.001Z,41.92
2023-01-28T23:42:58.379Z,35.67
2023-01-28T23:45:02.105Z,41.88
2023-01-28T23:47:05.448Z,42.17
2023-01-28T23:49:09.867Z,40.72
2023-01-28T23:51:13.518Z,38.83
2023-01-28T23:53:16.727Z,43.42
2023-01-28T23:55:21.441Z,39.60
2023-01-28T23:57:24.845Z,35.80
2023-01-28T23:59:28.525Z,43.63
